Icarus — D5AX3 — position and weather

sailwx.info

Track history (hours):
 
Tides and Currents Weather Stations Pressure Air Temp Water Temp Dewpoint Dewpoint Depression Visibility Wind Speed Wind Dir Waves Ship Positions

Icarus

Last reported at 2015-Apr-13 12:33 UTC. Time now 2015-May-05 04:12 UTC.
Position N 28°22' W 016°00'.
Warning: this ship's position is 21 days out of date.

Length 225 m; draft 7.5 m.

Type: Cargo ship. MMSI: 636015464.

Date/timePositionNaut miles runAvg speedWind from/ knotsBaromVisibWave heightAir tempDewpointWater temp
2015-Apr-13 12:33N 28°22' W 016°00'1414.1
2015-Apr-13 11:33N 28°32' W 015°49'1414.1
2015-Apr-13 10:33N 28°43' W 015°38'6 5.8
2015-Apr-13 09:33N 28°46' W 015°33'8 8.1
2015-Apr-13 08:33N 28°52' W 015°26'1414.1
2015-Apr-13 07:33N 29°01' W 015°14'1714.4
2015-Apr-13 06:23N 29°12' W 014°59'62914.2
2015-Apr-11 10:10N 35°59' W 005°31'812.5
2015-Apr-11 09:33N 36°04' W 005°23'5 3.4
2015-Apr-11 08:04N 36°09' W 005°23'0 0.0
2015-Apr-11 06:31N 36°09' W 005°23'0 0.1
2015-Apr-11 05:28N 36°09' W 005°23'0 0.1
2015-Apr-11 04:07N 36°09' W 005°23'0 0.1
2015-Apr-11 03:31N 36°09' W 005°23'0 0.0
2015-Apr-11 02:07N 36°09' W 005°23'0 0.1
2015-Apr-11 01:25N 36°09' W 005°23'0 0.1
2015-Apr-11 00:10N 36°09' W 005°23'0 0.0
2015-Apr-10 23:28N 36°09' W 005°23'0 0.0
2015-Apr-10 22:31N 36°09' W 005°23'0 0.2
2015-Apr-10 21:28N 36°09' W 005°23'0 0.0
2015-Apr-10 19:16N 36°09' W 005°23'0 0.0
2015-Apr-10 17:10N 36°09' W 005°23'4 2.2
2015-Apr-10 15:33N 36°05' W 005°21'5 4.7
2015-Apr-10 14:33N 36°04' W 005°16'3 2.9
2015-Apr-10 13:33N 36°05' W 005°12'4 3.9
2015-Apr-10 12:33N 36°07' W 005°08'1 0.9
2015-Apr-10 11:21N 36°06' W 005°08'1 0.5
2015-Apr-10 10:23N 36°05' W 005°08'2 2.1
2015-Apr-10 09:23N 36°07' W 005°07'1 1.4
2015-Apr-10 08:30N 36°08' W 005°06'6 5.8
2015-Apr-10 07:33N 36°10' W 005°12'1 1.5
2015-Apr-10 06:32N 36°09' W 005°13'1 1.0
2015-Apr-10 05:10N 36°08' W 005°13'0 0.2
2015-Apr-10 04:33N 36°07' W 005°12'1 0.9
2015-Apr-10 03:33N 36°08' W 005°13'1 1.3
2015-Apr-10 02:32N 36°08' W 005°12'1 1.1
2015-Apr-10 01:33N 36°07' W 005°13'1 1.2
2015-Apr-10 00:33N 36°07' W 005°12'1 0.5
2015-Apr-09 23:33N 36°07' W 005°12'2 1.7
2015-Apr-09 22:31N 36°08' W 005°11'1 1.1
2015-Apr-09 21:33N 36°09' W 005°10'1 0.7
2015-Apr-09 20:33N 36°10' W 005°10'0 0.4
2015-Apr-09 19:28N 36°10' W 005°10'1 0.9
2015-Apr-09 18:15N 36°10' W 005°09'2 2.1
2015-Apr-09 17:15N 36°10' W 005°11'2 1.3
2015-Apr-09 15:32N 36°08' W 005°10'1 1.3
2015-Apr-09 14:33N 36°09' W 005°09'  
2015-Apr-07 02:16N 38°34' E 008°26'1014.5
2015-Apr-07 01:33N 38°37' E 008°39'1514.7
2015-Apr-07 00:31N 38°41' E 008°58'1414.5
2015-Apr-06 23:33N 38°48' E 009°13'1514.4
2015-Apr-06 22:32N 38°55' E 009°29'1514.8
2015-Apr-06 21:32N 39°03' E 009°46'  
Track history (hours):
 
Tides and Currents Weather Stations Pressure Air Temp Water Temp Dewpoint Dewpoint Depression Visibility Wind Speed Wind Dir Waves Ship Positions

Icarus

Last reported at 2015-Apr-13 12:33 UTC. Time now 2015-May-05 04:12 UTC.
Position N 28°22' W 016°00'.
Warning: this ship's position is 21 days out of date.

Length 225 m; draft 7.5 m.

Type: Cargo ship. MMSI: 636015464.

Date/timePositionNaut miles runAvg speedWind from/ knotsBaromVisibWave heightAir tempDewpointWater temp
2015-Apr-13 12:33N 28°22' W 016°00'1414.1
2015-Apr-13 11:33N 28°32' W 015°49'1414.1
2015-Apr-13 10:33N 28°43' W 015°38'6 5.8
2015-Apr-13 09:33N 28°46' W 015°33'8 8.1
2015-Apr-13 08:33N 28°52' W 015°26'1414.1
2015-Apr-13 07:33N 29°01' W 015°14'1714.4
2015-Apr-13 06:23N 29°12' W 014°59'62914.2
2015-Apr-11 10:10N 35°59' W 005°31'812.5
2015-Apr-11 09:33N 36°04' W 005°23'5 3.4
2015-Apr-11 08:04N 36°09' W 005°23'0 0.0
2015-Apr-11 06:31N 36°09' W 005°23'0 0.1
2015-Apr-11 05:28N 36°09' W 005°23'0 0.1
2015-Apr-11 04:07N 36°09' W 005°23'0 0.1
2015-Apr-11 03:31N 36°09' W 005°23'0 0.0
2015-Apr-11 02:07N 36°09' W 005°23'0 0.1
2015-Apr-11 01:25N 36°09' W 005°23'0 0.1
2015-Apr-11 00:10N 36°09' W 005°23'0 0.0
2015-Apr-10 23:28N 36°09' W 005°23'0 0.0
2015-Apr-10 22:31N 36°09' W 005°23'0 0.2
2015-Apr-10 21:28N 36°09' W 005°23'0 0.0
2015-Apr-10 19:16N 36°09' W 005°23'0 0.0
2015-Apr-10 17:10N 36°09' W 005°23'4 2.2
2015-Apr-10 15:33N 36°05' W 005°21'5 4.7
2015-Apr-10 14:33N 36°04' W 005°16'3 2.9
2015-Apr-10 13:33N 36°05' W 005°12'4 3.9
2015-Apr-10 12:33N 36°07' W 005°08'1 0.9
2015-Apr-10 11:21N 36°06' W 005°08'1 0.5
2015-Apr-10 10:23N 36°05' W 005°08'2 2.1
2015-Apr-10 09:23N 36°07' W 005°07'1 1.4
2015-Apr-10 08:30N 36°08' W 005°06'6 5.8
2015-Apr-10 07:33N 36°10' W 005°12'1 1.5
2015-Apr-10 06:32N 36°09' W 005°13'1 1.0
2015-Apr-10 05:10N 36°08' W 005°13'0 0.2
2015-Apr-10 04:33N 36°07' W 005°12'1 0.9
2015-Apr-10 03:33N 36°08' W 005°13'1 1.3
2015-Apr-10 02:32N 36°08' W 005°12'1 1.1
2015-Apr-10 01:33N 36°07' W 005°13'1 1.2
2015-Apr-10 00:33N 36°07' W 005°12'1 0.5
2015-Apr-09 23:33N 36°07' W 005°12'2 1.7
2015-Apr-09 22:31N 36°08' W 005°11'1 1.1
2015-Apr-09 21:33N 36°09' W 005°10'1 0.7
2015-Apr-09 20:33N 36°10' W 005°10'0 0.4
2015-Apr-09 19:28N 36°10' W 005°10'1 0.9
2015-Apr-09 18:15N 36°10' W 005°09'2 2.1
2015-Apr-09 17:15N 36°10' W 005°11'2 1.3
2015-Apr-09 15:32N 36°08' W 005°10'1 1.3
2015-Apr-09 14:33N 36°09' W 005°09'  
2015-Apr-07 02:16N 38°34' E 008°26'1014.5
2015-Apr-07 01:33N 38°37' E 008°39'1514.7
2015-Apr-07 00:31N 38°41' E 008°58'1414.5
2015-Apr-06 23:33N 38°48' E 009°13'1514.4
2015-Apr-06 22:32N 38°55' E 009°29'1514.8
2015-Apr-06 21:32N 39°03' E 009°46'  

Dump ship's entire track history